Time;durP1;ratioP1;P1;durP2;ratioP2;P2;SDS_P1;SDS_P2;PMS_P1;PMS_P2;Temp;Humidity;BMP_temperature;BMP_pressure;BME280_temperature;BME280_humidity;BME280_pressure;Samples;Min_cycle;Max_cycle;Signal;HPM_P1;HPM_P2
2023/02/09 00:00:13;;;;;;;11.60;9.10;;;;;;;;;;5014641;28;20188;-47
2023/02/09 00:02:39;;;;;;;10.50;8.90;;;;;;;;;;5009723;28;20259;-47
2023/02/09 00:05:05;;;;;;;10.65;8.50;;;;;;;;;;5012628;28;20221;-47
2023/02/09 00:07:31;;;;;;;10.90;8.55;;;;;;;;;;5009607;28;20508;-47
2023/02/09 00:09:57;;;;;;;10.20;8.10;;;;;;;;;;5014062;28;20263;-47
2023/02/09 00:15:08;;;;;;;11.02;8.65;;;;;;;;;;5007953;28;20211;-47
2023/02/09 00:17:35;;;;;;;10.88;8.45;;;;;;;;;;5005910;28;20195;-48
2023/02/09 00:20:01;;;;;;;10.20;8.57;;;;;;;;;;5009539;28;20256;-47
2023/02/09 00:22:27;;;;;;;10.98;8.60;;;;;;;;;;5010275;28;20192;-47
2023/02/09 00:24:53;;;;;;;10.35;8.10;;;;;;;;;;4998890;28;20205;-47
2023/02/09 00:27:19;;;;;;;12.77;8.68;;;;;;;;;;5015195;28;20200;-47
2023/02/09 00:29:45;;;;;;;8.95;7.57;;;;;;;;;;5014658;28;20307;-47
2023/02/09 00:32:11;;;;;;;12.30;8.15;;;;;;;;;;5010763;28;20226;-47
2023/02/09 00:34:37;;;;;;;10.32;7.95;;;;;;;;;;5011723;28;20607;-47
2023/02/09 00:37:03;;;;;;;9.93;7.72;;;;;;;;;;5018173;28;20473;-47
2023/02/09 00:39:29;;;;;;;9.77;8.30;;;;;;;;;;5014678;28;20544;-47
2023/02/09 00:42:04;;;;;;;9.38;8.07;;;;;;;;;;5011141;28;20197;-47
2023/02/09 00:44:30;;;;;;;10.07;8.00;;;;;;;;;;5010252;28;20219;-47
2023/02/09 00:46:56;;;;;;;10.63;8.13;;;;;;;;;;5006930;28;20200;-47
2023/02/09 00:49:22;;;;;;;9.18;7.38;;;;;;;;;;5013381;28;20184;-47
2023/02/09 00:51:48;;;;;;;10.38;7.85;;;;;;;;;;5013262;28;20176;-47
2023/02/09 00:54:15;;;;;;;10.02;7.78;;;;;;;;;;5014866;28;20184;-47
2023/02/09 00:56:42;;;;;;;10.77;7.55;;;;;;;;;;5011136;28;20587;-47
2023/02/09 00:59:07;;;;;;;10.93;7.45;;;;;;;;;;5007216;28;20536;-47
2023/02/09 01:01:33;;;;;;;9.18;7.45;;;;;;;;;;5007404;28;20189;-47
2023/02/09 01:03:59;;;;;;;8.77;7.03;;;;;;;;;;5006946;28;20198;-47
2023/02/09 01:06:25;;;;;;;9.07;7.22;;;;;;;;;;5014422;28;20523;-47
2023/02/09 01:08:51;;;;;;;8.60;7.07;;;;;;;;;;5012822;28;20517;-47
2023/02/09 01:11:17;;;;;;;9.10;6.90;;;;;;;;;;5012649;28;20196;-47
2023/02/09 01:13:43;;;;;;;8.77;7.05;;;;;;;;;;5012943;28;20209;-47
2023/02/09 01:16:11;;;;;;;9.98;7.43;;;;;;;;;;5008652;28;20519;-46
2023/02/09 01:18:37;;;;;;;10.00;7.18;;;;;;;;;;5011747;28;20492;-47
2023/02/09 01:21:03;;;;;;;9.55;6.82;;;;;;;;;;5007170;28;20197;-47
2023/02/09 01:23:29;;;;;;;8.82;6.80;;;;;;;;;;5004919;28;20180;-47
2023/02/09 01:26:01;;;;;;;9.63;6.90;;;;;;;;;;5008620;28;20749;-47
2023/02/09 01:28:27;;;;;;;9.18;7.30;;;;;;;;;;5006717;28;20261;-47
2023/02/09 01:30:53;;;;;;;9.02;7.15;;;;;;;;;;5010906;28;20231;-47
2023/02/09 01:33:19;;;;;;;8.25;6.40;;;;;;;;;;5010269;28;20315;-47
2023/02/09 01:35:45;;;;;;;8.23;6.82;;;;;;;;;;5023162;28;20185;-48
2023/02/09 01:38:11;;;;;;;8.40;6.93;;;;;;;;;;5019589;28;20188;-47
2023/02/09 01:40:37;;;;;;;8.10;6.30;;;;;;;;;;5017060;28;20188;-47
2023/02/09 01:43:03;;;;;;;8.60;6.50;;;;;;;;;;5006651;28;20196;-47
2023/02/09 01:45:40;;;;;;;7.85;6.80;;;;;;;;;;5017247;28;20676;-47
2023/02/09 01:48:06;;;;;;;8.57;6.30;;;;;;;;;;5009625;28;20781;-47
2023/02/09 01:50:34;;;;;;;8.30;6.70;;;;;;;;;;5017787;28;20252;-47
2023/02/09 01:53:01;;;;;;;8.00;6.20;;;;;;;;;;5014117;28;20204;-47
2023/02/09 01:55:28;;;;;;;7.63;5.88;;;;;;;;;;5011078;28;20189;-47
2023/02/09 01:57:59;;;;;;;8.65;6.30;;;;;;;;;;5007841;28;20209;-47
2023/02/09 02:00:25;;;;;;;8.35;6.47;;;;;;;;;;5007596;28;20188;-47
2023/02/09 02:02:53;;;;;;;8.57;6.88;;;;;;;;;;5004590;28;20341;-47
2023/02/09 02:05:20;;;;;;;8.18;6.40;;;;;;;;;;5003426;28;20274;-47
2023/02/09 02:08:04;;;;;;;8.77;6.43;;;;;;;;;;5012997;28;20181;-47
2023/02/09 02:10:30;;;;;;;7.90;6.47;;;;;;;;;;5013217;28;20463;-47
2023/02/09 02:12:56;;;;;;;7.22;5.90;;;;;;;;;;5009664;28;20264;-47
2023/02/09 02:15:27;;;;;;;7.10;5.97;;;;;;;;;;5009309;28;20204;-47
2023/02/09 02:18:18;;;;;;;7.88;6.18;;;;;;;;;;5010825;28;20197;-47
2023/02/09 02:21:00;;;;;;;7.32;6.05;;;;;;;;;;5013605;28;20196;-47
2023/02/09 02:23:47;;;;;;;7.80;6.15;;;;;;;;;;5013633;28;20235;-47
2023/02/09 02:26:31;;;;;;;7.82;6.10;;;;;;;;;;5012687;28;20266;-47
2023/02/09 02:29:23;;;;;;;7.90;6.15;;;;;;;;;;5011111;28;20195;-46
2023/02/09 02:31:58;;;;;;;6.55;5.70;;;;;;;;;;5016574;28;20183;-47
2023/02/09 02:34:45;;;;;;;7.53;6.20;;;;;;;;;;5022456;28;20191;-47
2023/02/09 02:37:30;;;;;;;7.38;6.30;;;;;;;;;;5015676;28;20191;-47
2023/02/09 02:39:56;;;;;;;6.70;5.70;;;;;;;;;;5015152;28;20183;-47
2023/02/09 02:45:33;;;;;;;7.22;5.60;;;;;;;;;;5014054;28;20342;-47
2023/02/09 02:48:14;;;;;;;7.05;5.88;;;;;;;;;;4991889;28;20197;-47
2023/02/09 02:50:46;;;;;;;9.35;6.75;;;;;;;;;;5012511;28;20192;-47
2023/02/09 02:53:13;;;;;;;6.95;5.93;;;;;;;;;;5010951;28;20188;-47
2023/02/09 02:55:39;;;;;;;7.95;5.93;;;;;;;;;;5017007;28;20203;-47
2023/02/09 02:58:08;;;;;;;7.25;5.82;;;;;;;;;;5014916;28;20216;-47
2023/02/09 03:00:42;;;;;;;8.27;6.45;;;;;;;;;;5009232;28;20215;-47
2023/02/09 03:03:11;;;;;;;7.72;6.57;;;;;;;;;;5006001;28;20211;-47
2023/02/09 03:05:38;;;;;;;6.57;5.55;;;;;;;;;;5014820;28;20346;-48
2023/02/09 03:08:04;;;;;;;9.02;6.63;;;;;;;;;;5016465;28;20191;-47
2023/02/09 03:10:31;;;;;;;8.25;6.25;;;;;;;;;;5012270;28;20181;-47
2023/02/09 03:13:19;;;;;;;7.28;6.07;;;;;;;;;;5009206;28;20173;-47
2023/02/09 03:16:04;;;;;;;7.65;6.20;;;;;;;;;;5009008;28;20234;-47
2023/02/09 03:18:32;;;;;;;7.47;6.20;;;;;;;;;;5004848;28;20200;-47
2023/02/09 03:21:02;;;;;;;7.88;6.32;;;;;;;;;;5013349;28;20192;-47
2023/02/09 03:23:28;;;;;;;7.97;5.85;;;;;;;;;;5014636;28;20195;-47
2023/02/09 03:25:56;;;;;;;8.98;6.35;;;;;;;;;;5013695;28;20215;-47
2023/02/09 03:28:28;;;;;;;7.15;6.05;;;;;;;;;;5015074;28;20447;-47
2023/02/09 03:30:54;;;;;;;7.75;5.78;;;;;;;;;;5015837;28;20184;-47
2023/02/09 03:33:22;;;;;;;7.43;5.80;;;;;;;;;;5007937;28;20195;-47
2023/02/09 03:35:50;;;;;;;7.38;6.15;;;;;;;;;;5019029;28;20567;-47
2023/02/09 03:38:16;;;;;;;6.97;5.72;;;;;;;;;;5009575;28;20555;-47
2023/02/09 03:40:42;;;;;;;6.80;5.38;;;;;;;;;;5012821;28;20263;-47
2023/02/09 03:43:10;;;;;;;7.63;5.82;;;;;;;;;;5011833;28;20216;-47
2023/02/09 03:45:35;;;;;;;7.35;5.70;;;;;;;;;;5014268;28;20204;-47
2023/02/09 03:48:04;;;;;;;7.18;5.22;;;;;;;;;;5005730;28;20198;-47
2023/02/09 03:50:30;;;;;;;7.55;5.38;;;;;;;;;;5016085;28;20278;-47
2023/02/09 03:52:56;;;;;;;6.57;5.40;;;;;;;;;;5013886;28;20429;-47
2023/02/09 03:55:22;;;;;;;6.63;5.57;;;;;;;;;;5009400;28;20203;-47
2023/02/09 03:57:48;;;;;;;8.02;5.40;;;;;;;;;;5011392;28;20192;-47
2023/02/09 04:00:14;;;;;;;8.13;6.30;;;;;;;;;;5001511;28;20203;-47
2023/02/09 04:02:41;;;;;;;7.38;5.55;;;;;;;;;;5003390;28;20191;-47
2023/02/09 04:05:07;;;;;;;7.75;5.80;;;;;;;;;;5004728;28;20248;-47
2023/02/09 04:07:33;;;;;;;7.03;5.28;;;;;;;;;;5006276;28;20177;-47
2023/02/09 04:09:59;;;;;;;7.30;5.40;;;;;;;;;;5016050;28;20203;-47
2023/02/09 04:12:25;;;;;;;8.50;5.80;;;;;;;;;;5006450;28;20440;-47
2023/02/09 04:14:50;;;;;;;8.00;6.03;;;;;;;;;;4996335;28;20216;-47
2023/02/09 04:17:16;;;;;;;10.07;6.78;;;;;;;;;;5006655;28;20517;-47
2023/02/09 04:19:42;;;;;;;10.55;6.88;;;;;;;;;;5010261;28;20196;-47
2023/02/09 04:22:09;;;;;;;11.73;6.90;;;;;;;;;;5013435;28;20191;-47
2023/02/09 04:24:34;;;;;;;11.02;6.45;;;;;;;;;;5009629;28;20187;-47
2023/02/09 04:27:00;;;;;;;10.15;6.13;;;;;;;;;;5014180;28;20263;-48
2023/02/09 04:29:26;;;;;;;11.10;7.10;;;;;;;;;;5014745;28;20496;-47
2023/02/09 04:31:52;;;;;;;15.10;6.03;;;;;;;;;;5014630;28;20552;-47
2023/02/09 04:34:20;;;;;;;9.65;6.75;;;;;;;;;;5017095;28;20266;-47
2023/02/09 04:36:46;;;;;;;9.15;6.20;;;;;;;;;;5024539;28;20183;-47
2023/02/09 04:39:12;;;;;;;8.07;5.78;;;;;;;;;;5014010;28;20230;-47
2023/02/09 04:41:38;;;;;;;10.88;6.47;;;;;;;;;;5005634;28;20177;-47
2023/02/09 04:44:03;;;;;;;9.10;6.13;;;;;;;;;;5011033;28;20560;-47
2023/02/09 04:46:29;;;;;;;13.85;6.70;;;;;;;;;;5007386;28;20222;-47
2023/02/09 04:48:55;;;;;;;10.48;6.07;;;;;;;;;;5009952;28;20180;-47
2023/02/09 04:51:21;;;;;;;12.07;6.32;;;;;;;;;;5013241;28;20575;-47
2023/02/09 04:53:47;;;;;;;11.98;6.35;;;;;;;;;;5009193;28;20250;-47
2023/02/09 04:56:14;;;;;;;10.77;6.78;;;;;;;;;;5013955;28;20206;-47
2023/02/09 05:01:25;;;;;;;10.48;6.38;;;;;;;;;;5005048;28;20191;-48
2023/02/09 05:03:52;;;;;;;10.35;6.50;;;;;;;;;;5013015;28;20181;-48
2023/02/09 05:06:18;;;;;;;10.43;6.07;;;;;;;;;;5013850;28;20217;-47
2023/02/09 05:08:44;;;;;;;9.10;6.35;;;;;;;;;;5001661;28;20523;-47
2023/02/09 05:11:10;;;;;;;9.20;6.25;;;;;;;;;;5007886;28;20176;-47
2023/02/09 05:13:36;;;;;;;9.15;5.78;;;;;;;;;;5010491;28;20188;-47
2023/02/09 05:16:08;;;;;;;8.48;5.85;;;;;;;;;;5015573;28;20223;-47
2023/02/09 05:18:35;;;;;;;13.65;6.78;;;;;;;;;;5011765;28;20195;-47
2023/02/09 05:21:01;;;;;;;9.13;5.82;;;;;;;;;;5011238;28;20547;-47
2023/02/09 05:23:27;;;;;;;10.48;6.22;;;;;;;;;;5014168;28;20192;-47
2023/02/09 05:25:54;;;;;;;8.82;6.00;;;;;;;;;;5014010;28;20277;-47
2023/02/09 05:28:20;;;;;;;7.68;5.30;;;;;;;;;;5015674;28;20193;-47
2023/02/09 05:30:47;;;;;;;10.13;5.43;;;;;;;;;;5018835;28;20508;-47
2023/02/09 05:33:13;;;;;;;10.70;6.00;;;;;;;;;;5015110;28;20496;-47
2023/02/09 05:35:39;;;;;;;7.93;5.70;;;;;;;;;;5019374;28;20189;-47
2023/02/09 05:38:05;;;;;;;8.88;5.57;;;;;;;;;;5014435;28;20195;-47
2023/02/09 05:40:31;;;;;;;8.52;5.80;;;;;;;;;;5015002;28;20227;-47
2023/02/09 05:42:58;;;;;;;10.65;5.65;;;;;;;;;;5017103;28;20222;-47
2023/02/09 05:45:24;;;;;;;9.30;5.55;;;;;;;;;;5016669;28;20224;-47
2023/02/09 05:47:50;;;;;;;6.97;5.47;;;;;;;;;;5011524;28;20219;-47
2023/02/09 05:50:16;;;;;;;8.05;5.60;;;;;;;;;;5017734;28;20177;-47
2023/02/09 05:52:42;;;;;;;8.15;5.70;;;;;;;;;;5013671;28;20446;-47
2023/02/09 05:55:08;;;;;;;8.80;5.50;;;;;;;;;;5014053;28;20200;-47
2023/02/09 05:57:33;;;;;;;15.90;5.03;;;;;;;;;;5013469;28;20188;-47
2023/02/09 05:59:59;;;;;;;7.43;5.50;;;;;;;;;;5016129;28;20196;-47
2023/02/09 06:02:25;;;;;;;6.78;5.25;;;;;;;;;;5014217;28;20211;-47
2023/02/09 06:04:51;;;;;;;7.72;5.05;;;;;;;;;;5016167;28;20209;-47
2023/02/09 06:07:17;;;;;;;7.03;5.20;;;;;;;;;;5020432;28;20521;-47
2023/02/09 06:09:43;;;;;;;7.38;5.10;;;;;;;;;;5013633;28;20184;-47
2023/02/09 06:12:09;;;;;;;7.20;5.10;;;;;;;;;;5008456;28;20477;-47
2023/02/09 06:14:35;;;;;;;10.23;5.50;;;;;;;;;;5009525;28;20180;-47
2023/02/09 06:17:00;;;;;;;5.85;4.95;;;;;;;;;;5013882;28;20218;-47
2023/02/09 06:19:26;;;;;;;6.65;4.80;;;;;;;;;;4997460;28;20196;-47
2023/02/09 06:21:52;;;;;;;6.68;4.90;;;;;;;;;;5015971;28;20195;-47
2023/02/09 06:24:18;;;;;;;7.28;4.85;;;;;;;;;;5012828;28;20263;-47
2023/02/09 06:26:44;;;;;;;7.80;5.25;;;;;;;;;;5003316;28;20205;-47
2023/02/09 06:29:10;;;;;;;8.55;5.70;;;;;;;;;;5014450;28;20587;-47
2023/02/09 06:31:36;;;;;;;6.47;4.78;;;;;;;;;;5016532;28;20564;-47
2023/02/09 06:34:04;;;;;;;5.43;4.45;;;;;;;;;;5015427;28;20259;-47
2023/02/09 06:36:30;;;;;;;5.85;4.57;;;;;;;;;;5020684;28;20216;-47
2023/02/09 06:38:56;;;;;;;6.85;5.03;;;;;;;;;;5015508;28;20291;-47
2023/02/09 06:41:22;;;;;;;8.57;5.13;;;;;;;;;;5015563;28;20218;-47
2023/02/09 06:43:48;;;;;;;6.63;5.03;;;;;;;;;;5016447;28;20195;-48
2023/02/09 06:46:14;;;;;;;6.28;5.10;;;;;;;;;;5016011;28;20476;-47
2023/02/09 06:48:40;;;;;;;8.32;5.00;;;;;;;;;;5006939;28;20188;-47
2023/02/09 06:51:09;;;;;;;5.93;4.70;;;;;;;;;;5007534;28;20243;-47
2023/02/09 06:53:36;;;;;;;6.55;4.72;;;;;;;;;;5010288;28;20177;-47
2023/02/09 06:56:02;;;;;;;7.30;4.60;;;;;;;;;;5016511;28;20184;-47
2023/02/09 06:58:28;;;;;;;7.15;4.82;;;;;;;;;;5014796;28;20267;-47
2023/02/09 07:00:54;;;;;;;7.80;5.47;;;;;;;;;;5012728;28;20465;-47
2023/02/09 07:03:20;;;;;;;5.68;4.57;;;;;;;;;;5016277;28;20267;-47
2023/02/09 07:05:45;;;;;;;7.13;5.53;;;;;;;;;;5020249;28;20208;-47
2023/02/09 07:08:11;;;;;;;7.32;5.03;;;;;;;;;;5016990;28;20204;-47
2023/02/09 07:10:39;;;;;;;6.78;5.45;;;;;;;;;;5016186;28;20216;-47
2023/02/09 07:13:05;;;;;;;6.18;4.63;;;;;;;;;;5008963;28;20263;-47
2023/02/09 07:15:31;;;;;;;5.22;4.32;;;;;;;;;;5007858;28;20287;-47
2023/02/09 07:17:57;;;;;;;6.57;5.55;;;;;;;;;;5014291;28;20211;-47
2023/02/09 07:20:23;;;;;;;5.43;4.50;;;;;;;;;;5014038;28;20642;-47
2023/02/09 07:22:49;;;;;;;6.78;5.07;;;;;;;;;;5014919;28;20276;-46
2023/02/09 07:25:15;;;;;;;5.25;4.47;;;;;;;;;;5008367;28;20497;-46
2023/02/09 07:27:44;;;;;;;5.10;4.60;;;;;;;;;;5014484;28;20192;-46
2023/02/09 07:30:10;;;;;;;6.13;5.07;;;;;;;;;;5014220;28;20208;-47
2023/02/09 07:32:37;;;;;;;7.28;4.55;;;;;;;;;;5014158;28;20219;-47
2023/02/09 07:35:03;;;;;;;5.45;4.63;;;;;;;;;;5006787;28;20189;-47
2023/02/09 07:37:29;;;;;;;5.45;4.30;;;;;;;;;;5014188;28;20254;-47
2023/02/09 07:39:55;;;;;;;8.27;5.68;;;;;;;;;;5011462;28;20227;-47
2023/02/09 07:42:21;;;;;;;5.97;5.18;;;;;;;;;;5006791;28;20189;-46
2023/02/09 07:44:46;;;;;;;6.07;4.80;;;;;;;;;;5002313;28;20618;-47
2023/02/09 07:47:13;;;;;;;6.25;5.10;;;;;;;;;;5004195;28;20193;-47
2023/02/09 07:49:39;;;;;;;6.85;5.35;;;;;;;;;;5012264;28;20181;-47
2023/02/09 07:52:05;;;;;;;7.03;5.07;;;;;;;;;;5009347;28;20540;-47
2023/02/09 07:54:31;;;;;;;5.63;4.90;;;;;;;;;;5014519;28;20177;-47
2023/02/09 07:56:57;;;;;;;5.82;4.97;;;;;;;;;;5012657;28;20261;-47
2023/02/09 07:59:23;;;;;;;6.72;5.05;;;;;;;;;;5012561;28;20269;-47
2023/02/09 08:01:50;;;;;;;6.30;4.85;;;;;;;;;;5012872;28;20223;-47
2023/02/09 08:04:16;;;;;;;6.78;5.45;;;;;;;;;;5009882;28;20260;-47
2023/02/09 08:06:44;;;;;;;5.88;4.97;;;;;;;;;;5018196;28;20302;-47
2023/02/09 08:09:10;;;;;;;5.90;4.72;;;;;;;;;;5007663;28;20177;-47
2023/02/09 08:11:39;;;;;;;5.75;4.70;;;;;;;;;;5014521;28;20279;-47
2023/02/09 08:14:08;;;;;;;6.30;4.72;;;;;;;;;;5004540;28;20219;-47
2023/02/09 08:16:35;;;;;;;6.00;5.25;;;;;;;;;;5012473;28;20180;-47
2023/02/09 08:19:21;;;;;;;6.72;5.20;;;;;;;;;;5015178;28;20413;-47
2023/02/09 08:21:48;;;;;;;6.68;5.13;;;;;;;;;;5008169;28;20192;-47
2023/02/09 08:24:16;;;;;;;6.43;5.15;;;;;;;;;;5008453;28;20180;-47
2023/02/09 08:26:42;;;;;;;9.40;6.03;;;;;;;;;;5013885;28;20291;-47
2023/02/09 08:29:08;;;;;;;7.28;5.85;;;;;;;;;;5014794;28;20291;-47
2023/02/09 08:31:34;;;;;;;7.32;5.45;;;;;;;;;;5014166;28;20487;-47
2023/02/09 08:34:00;;;;;;;6.57;5.32;;;;;;;;;;5012335;28;20208;-47
2023/02/09 08:36:26;;;;;;;7.88;5.53;;;;;;;;;;5014649;28;20267;-47
2023/02/09 08:38:52;;;;;;;7.07;5.60;;;;;;;;;;5012757;28;20242;-47
2023/02/09 08:41:18;;;;;;;7.45;6.00;;;;;;;;;;5014373;28;20491;-47
2023/02/09 08:43:50;;;;;;;6.25;5.30;;;;;;;;;;5014940;28;20203;-47
2023/02/09 08:46:17;;;;;;;6.95;5.40;;;;;;;;;;5012866;28;20623;-47
2023/02/09 08:48:43;;;;;;;6.65;5.72;;;;;;;;;;5010847;28;20181;-47
2023/02/09 08:51:09;;;;;;;6.35;5.53;;;;;;;;;;5008938;28;20180;-47
2023/02/09 08:53:35;;;;;;;7.32;6.00;;;;;;;;;;5013800;28;20188;-47
2023/02/09 08:56:01;;;;;;;7.05;5.68;;;;;;;;;;5013031;28;20180;-47
2023/02/09 08:58:29;;;;;;;7.00;5.57;;;;;;;;;;5013481;28;20192;-47
2023/02/09 09:00:59;;;;;;;6.90;5.93;;;;;;;;;;5011533;28;20180;-47
2023/02/09 09:03:27;;;;;;;5.70;5.03;;;;;;;;;;5010736;28;20188;-47
2023/02/09 09:06:00;;;;;;;7.07;5.80;;;;;;;;;;5019195;28;20199;-47
2023/02/09 09:08:26;;;;;;;7.22;5.60;;;;;;;;;;5012695;28;20279;-47
2023/02/09 09:10:52;;;;;;;7.22;5.82;;;;;;;;;;5014147;28;20180;-47
2023/02/09 09:13:18;;;;;;;6.13;4.68;;;;;;;;;;5011379;28;20195;-47
2023/02/09 09:15:44;;;;;;;6.65;5.13;;;;;;;;;;5011892;28;20626;-47
2023/02/09 09:18:10;;;;;;;6.28;5.18;;;;;;;;;;5009653;28;20188;-47
2023/02/09 09:20:40;;;;;;;7.68;5.63;;;;;;;;;;5013306;28;20670;-47
2023/02/09 09:23:06;;;;;;;6.25;5.07;;;;;;;;;;5012531;28;20230;-47
2023/02/09 09:25:32;;;;;;;7.90;5.75;;;;;;;;;;5014488;28;20204;-47
2023/02/09 09:27:58;;;;;;;6.13;5.20;;;;;;;;;;4999188;28;20207;-47
2023/02/09 09:30:24;;;;;;;6.47;5.13;;;;;;;;;;5008317;28;20528;-47
2023/02/09 09:32:50;;;;;;;6.65;5.53;;;;;;;;;;5005939;28;20187;-47
2023/02/09 09:35:16;;;;;;;7.68;5.38;;;;;;;;;;5022041;28;20185;-47
2023/02/09 09:37:42;;;;;;;5.78;5.13;;;;;;;;;;5017440;28;20246;-47
2023/02/09 09:40:09;;;;;;;6.38;5.28;;;;;;;;;;5005493;28;20279;-47
2023/02/09 09:42:43;;;;;;;7.70;5.35;;;;;;;;;;5012243;28;20268;-48
2023/02/09 09:45:14;;;;;;;6.63;5.30;;;;;;;;;;5007872;28;20220;-47
2023/02/09 09:47:40;;;;;;;6.72;5.20;;;;;;;;;;5006432;28;20192;-47
2023/02/09 09:50:13;;;;;;;7.07;5.40;;;;;;;;;;5014309;28;20476;-48
2023/02/09 09:52:39;;;;;;;6.50;5.20;;;;;;;;;;5009946;28;20208;-47
2023/02/09 09:55:07;;;;;;;5.53;4.63;;;;;;;;;;5014058;28;20192;-47
2023/02/09 09:57:37;;;;;;;5.78;5.18;;;;;;;;;;5010148;28;20192;-47
2023/02/09 10:00:04;;;;;;;6.28;5.40;;;;;;;;;;5011373;28;20504;-48
2023/02/09 10:02:31;;;;;;;5.78;5.05;;;;;;;;;;5014140;28;20220;-48
2023/02/09 10:05:01;;;;;;;6.47;4.88;;;;;;;;;;5019376;28;20204;-47
2023/02/09 10:07:30;;;;;;;6.30;5.20;;;;;;;;;;5016153;28;20283;-47
2023/02/09 10:10:03;;;;;;;5.55;4.82;;;;;;;;;;5015871;28;20176;-47
2023/02/09 10:12:32;;;;;;;6.63;5.40;;;;;;;;;;5016910;28;20184;-48
2023/02/09 10:14:58;;;;;;;5.88;4.97;;;;;;;;;;5009289;28;20184;-47
2023/02/09 10:17:24;;;;;;;7.13;5.32;;;;;;;;;;5008712;28;20499;-48
2023/02/09 10:20:00;;;;;;;5.70;5.10;;;;;;;;;;5009295;28;20188;-47
2023/02/09 10:22:26;;;;;;;6.55;5.05;;;;;;;;;;5009199;28;20247;-48
2023/02/09 10:24:52;;;;;;;5.50;4.90;;;;;;;;;;5017523;28;20575;-47
2023/02/09 10:27:20;;;;;;;6.72;5.10;;;;;;;;;;5013077;28;20211;-47
2023/02/09 10:29:47;;;;;;;5.35;4.70;;;;;;;;;;5017589;28;20180;-47
2023/02/09 10:32:14;;;;;;;6.30;5.28;;;;;;;;;;5016460;28;20188;-47
2023/02/09 10:34:45;;;;;;;5.57;4.97;;;;;;;;;;5016818;28;20172;-48
2023/02/09 10:37:19;;;;;;;6.13;4.80;;;;;;;;;;5020204;28;20267;-47
2023/02/09 10:39:47;;;;;;;5.47;4.68;;;;;;;;;;5008318;28;20276;-47
2023/02/09 10:42:21;;;;;;;5.53;4.68;;;;;;;;;;5015370;28;20568;-47
2023/02/09 10:44:48;;;;;;;5.95;4.30;;;;;;;;;;5009640;28;20176;-47
2023/02/09 10:47:23;;;;;;;5.50;4.88;;;;;;;;;;5016171;28;20176;-47
2023/02/09 10:50:10;;;;;;;4.57;4.13;;;;;;;;;;5006540;28;20183;-47
2023/02/09 10:52:38;;;;;;;5.43;4.20;;;;;;;;;;5010437;28;20463;-47
2023/02/09 10:55:20;;;;;;;5.47;4.45;;;;;;;;;;5013111;28;20619;-47
2023/02/09 10:57:46;;;;;;;7.07;4.97;;;;;;;;;;5012144;28;20184;-47
2023/02/09 11:00:14;;;;;;;5.43;4.72;;;;;;;;;;5015645;28;20191;-47
2023/02/09 11:02:42;;;;;;;5.90;4.68;;;;;;;;;;5011162;28;20215;-47
2023/02/09 11:05:20;;;;;;;5.63;4.70;;;;;;;;;;5006214;28;20224;-47
2023/02/09 11:08:09;;;;;;;5.00;4.50;;;;;;;;;;5005913;28;20307;-48
2023/02/09 11:10:39;;;;;;;5.35;4.82;;;;;;;;;;5002691;28;20173;-47
2023/02/09 11:13:16;;;;;;;4.70;4.20;;;;;;;;;;5008814;28;20268;-47
2023/02/09 11:15:44;;;;;;;4.65;4.10;;;;;;;;;;5005257;28;20508;-47
2023/02/09 11:18:22;;;;;;;4.68;4.18;;;;;;;;;;4997937;28;20189;-47
2023/02/09 11:20:48;;;;;;;5.63;4.22;;;;;;;;;;5004985;28;20200;-48
2023/02/09 11:23:30;;;;;;;4.45;4.05;;;;;;;;;;5004219;28;20181;-47
2023/02/09 11:26:14;;;;;;;4.70;3.92;;;;;;;;;;4997403;28;20300;-47
2023/02/09 11:28:46;;;;;;;4.63;3.97;;;;;;;;;;5005277;28;20207;-48
2023/02/09 11:31:38;;;;;;;4.72;4.20;;;;;;;;;;5010608;28;20223;-47
2023/02/09 11:34:23;;;;;;;4.45;3.88;;;;;;;;;;5005266;28;20185;-48
2023/02/09 11:36:58;;;;;;;5.57;4.05;;;;;;;;;;5002073;28;20189;-47
2023/02/09 11:39:28;;;;;;;4.38;3.97;;;;;;;;;;5005225;28;20184;-47
2023/02/09 11:44:55;;;;;;;5.07;3.97;;;;;;;;;;5016191;28;20211;-47
2023/02/09 11:47:27;;;;;;;4.82;4.05;;;;;;;;;;5014079;28;20242;-47
2023/02/09 11:49:57;;;;;;;4.30;3.90;;;;;;;;;;5013711;28;20183;-47
2023/02/09 11:52:37;;;;;;;4.10;3.70;;;;;;;;;;5009989;28;20184;-48
2023/02/09 11:55:14;;;;;;;5.55;3.88;;;;;;;;;;5008405;28;20228;-48
2023/02/09 11:57:42;;;;;;;5.20;4.20;;;;;;;;;;5014244;28;20283;-48
2023/02/09 12:00:15;;;;;;;4.32;3.70;;;;;;;;;;5008558;28;20200;-47
2023/02/09 12:02:59;;;;;;;3.90;3.50;;;;;;;;;;5013923;28;20208;-47
2023/02/09 12:05:26;;;;;;;5.45;4.20;;;;;;;;;;5009441;28;20221;-47
2023/02/09 12:08:05;;;;;;;5.43;3.72;;;;;;;;;;5010596;28;20197;-47
2023/02/09 12:10:51;;;;;;;5.15;3.88;;;;;;;;;;5006425;28;20212;-47
2023/02/09 12:13:20;;;;;;;3.65;3.35;;;;;;;;;;5002310;28;20215;-47
2023/02/09 12:16:01;;;;;;;4.03;3.53;;;;;;;;;;5002713;28;20232;-47
2023/02/09 12:18:29;;;;;;;3.63;3.30;;;;;;;;;;5002409;28;20192;-47
2023/02/09 12:20:59;;;;;;;4.00;3.60;;;;;;;;;;5001701;28;20469;-47
2023/02/09 12:23:33;;;;;;;3.75;3.35;;;;;;;;;;5002667;28;20631;-47
2023/02/09 12:26:19;;;;;;;3.97;3.22;;;;;;;;;;5001566;28;20209;-47
2023/02/09 12:29:17;;;;;;;3.72;3.20;;;;;;;;;;5014972;28;20450;-47
2023/02/09 12:32:01;;;;;;;3.95;3.17;;;;;;;;;;4980122;28;20331;-47
2023/02/09 12:34:29;;;;;;;3.60;3.30;;;;;;;;;;5022955;28;20195;-47
2023/02/09 12:37:15;;;;;;;4.63;3.42;;;;;;;;;;5015431;28;20249;-47
2023/02/09 12:40:00;;;;;;;4.15;3.38;;;;;;;;;;5015331;28;20363;-47
2023/02/09 12:42:28;;;;;;;4.38;3.47;;;;;;;;;;5008084;28;20627;-47
2023/02/09 12:44:58;;;;;;;4.05;3.50;;;;;;;;;;5015429;28;20293;-47
2023/02/09 12:47:40;;;;;;;4.15;3.45;;;;;;;;;;5004956;28;20181;-47
2023/02/09 12:50:18;;;;;;;4.10;3.40;;;;;;;;;;5008656;28;20238;-47
2023/02/09 12:53:03;;;;;;;3.53;3.13;;;;;;;;;;5006058;28;20187;-47
2023/02/09 12:55:29;;;;;;;4.47;3.55;;;;;;;;;;5010593;28;20218;-47
2023/02/09 12:57:55;;;;;;;3.95;3.20;;;;;;;;;;5012325;28;20184;-48
2023/02/09 13:00:28;;;;;;;4.15;2.83;;;;;;;;;;5014194;28;20194;-48
2023/02/09 13:02:56;;;;;;;4.35;3.05;;;;;;;;;;5012627;28;20184;-47
2023/02/09 13:05:22;;;;;;;3.90;3.50;;;;;;;;;;5014903;28;20219;-47
2023/02/09 13:07:53;;;;;;;3.50;3.13;;;;;;;;;;5012420;28;20595;-47
2023/02/09 13:10:23;;;;;;;4.60;3.13;;;;;;;;;;5013669;28;20184;-47
2023/02/09 13:12:52;;;;;;;5.18;3.10;;;;;;;;;;5008124;28;20177;-48
2023/02/09 13:15:19;;;;;;;3.72;3.15;;;;;;;;;;5015204;28;20200;-48
2023/02/09 13:18:04;;;;;;;5.28;3.35;;;;;;;;;;5000282;28;20264;-47
2023/02/09 13:20:51;;;;;;;4.88;3.28;;;;;;;;;;5011652;28;20210;-47
2023/02/09 13:23:32;;;;;;;5.32;3.38;;;;;;;;;;5008803;28;20184;-47
2023/02/09 13:26:01;;;;;;;3.72;2.85;;;;;;;;;;5006457;28;20293;-47
2023/02/09 13:28:26;;;;;;;5.43;3.88;;;;;;;;;;5006715;28;20229;-47
2023/02/09 13:30:53;;;;;;;4.88;3.35;;;;;;;;;;5009005;28;20204;-48
2023/02/09 13:33:27;;;;;;;5.43;3.20;;;;;;;;;;5006417;28;20193;-48
2023/02/09 13:35:59;;;;;;;4.18;3.10;;;;;;;;;;5015258;28;20580;-48
2023/02/09 13:38:26;;;;;;;5.68;3.33;;;;;;;;;;5015305;28;20586;-47
2023/02/09 13:40:53;;;;;;;5.03;3.40;;;;;;;;;;5017726;28;20236;-47
2023/02/09 13:43:33;;;;;;;4.45;3.33;;;;;;;;;;5013238;28;20184;-48
2023/02/09 13:46:00;;;;;;;5.10;3.20;;;;;;;;;;5011570;28;20204;-47
2023/02/09 13:48:27;;;;;;;5.28;3.40;;;;;;;;;;5016852;28;20270;-48
2023/02/09 13:50:54;;;;;;;4.57;3.60;;;;;;;;;;5015928;28;20306;-48
2023/02/09 13:53:21;;;;;;;4.53;3.20;;;;;;;;;;5015889;28;20226;-47
2023/02/09 13:55:48;;;;;;;5.80;3.45;;;;;;;;;;5017394;28;20181;-47
2023/02/09 13:58:19;;;;;;;4.68;3.35;;;;;;;;;;5017097;28;20556;-47
2023/02/09 14:00:48;;;;;;;6.10;3.80;;;;;;;;;;5015756;28;20193;-48
2023/02/09 14:03:15;;;;;;;5.50;3.67;;;;;;;;;;5009326;28;20263;-47
2023/02/09 14:05:44;;;;;;;5.80;3.80;;;;;;;;;;5007603;28;20208;-47
2023/02/09 14:08:12;;;;;;;5.30;3.42;;;;;;;;;;5018171;28;20197;-47
2023/02/09 14:10:40;;;;;;;6.70;3.38;;;;;;;;;;5015020;28;20184;-47
2023/02/09 14:13:24;;;;;;;5.93;3.38;;;;;;;;;;5017149;28;20255;-47
2023/02/09 14:16:08;;;;;;;5.63;3.33;;;;;;;;;;5016920;28;20723;-47
2023/02/09 14:18:49;;;;;;;5.70;3.85;;;;;;;;;;5009788;28;20240;-47
2023/02/09 14:21:16;;;;;;;5.10;3.60;;;;;;;;;;5013609;28;20216;-47
2023/02/09 14:23:44;;;;;;;5.28;3.60;;;;;;;;;;5006475;28;20184;-48
2023/02/09 14:26:13;;;;;;;5.93;3.63;;;;;;;;;;5001251;28;20235;-48
2023/02/09 14:28:39;;;;;;;5.05;3.58;;;;;;;;;;5013949;28;20199;-48
2023/02/09 14:31:06;;;;;;;4.75;3.75;;;;;;;;;;5017903;28;20549;-48
2023/02/09 14:33:36;;;;;;;3.42;3.03;;;;;;;;;;5009244;28;20192;-48
2023/02/09 14:36:04;;;;;;;6.93;3.72;;;;;;;;;;4999426;28;20181;-48
2023/02/09 14:38:46;;;;;;;3.97;3.30;;;;;;;;;;5011322;28;20188;-48
2023/02/09 14:41:26;;;;;;;5.60;3.50;;;;;;;;;;5004862;28;20206;-48
2023/02/09 14:43:59;;;;;;;4.30;3.25;;;;;;;;;;5015617;28;20192;-48
2023/02/09 14:46:25;;;;;;;5.75;3.95;;;;;;;;;;5009383;28;20534;-48
2023/02/09 14:48:54;;;;;;;6.63;3.63;;;;;;;;;;5006254;28;20181;-48
2023/02/09 14:51:21;;;;;;;5.75;3.53;;;;;;;;;;5005219;28;20213;-48
2023/02/09 14:53:47;;;;;;;4.28;3.45;;;;;;;;;;5016316;28;20192;-48
2023/02/09 14:56:26;;;;;;;5.80;3.67;;;;;;;;;;5010894;28;20565;-48
2023/02/09 14:58:52;;;;;;;4.65;3.00;;;;;;;;;;5015926;28;20199;-48
2023/02/09 15:01:18;;;;;;;5.32;3.42;;;;;;;;;;5015010;28;20283;-48
2023/02/09 15:03:44;;;;;;;5.90;3.90;;;;;;;;;;5016110;28;20192;-48